sensor_id;sensor_type;location;lat;lon;timestamp;pressure;altitude;pressure_sealevel;temperature
27826;BMP280;15077;49.704;9.908;2022-11-23T00:03:40;96757.88;;;9.30
27826;BMP280;15077;49.704;9.908;2022-11-23T00:06:06;96764.81;;;9.27
27826;BMP280;15077;49.704;9.908;2022-11-23T00:08:32;96759.19;;;9.22
27826;BMP280;15077;49.704;9.908;2022-11-23T00:10:58;96757.63;;;9.19
27826;BMP280;15077;49.704;9.908;2022-11-23T00:13:24;96750.41;;;9.14
27826;BMP280;15077;49.704;9.908;2022-11-23T00:15:49;96764.91;;;9.10
27826;BMP280;15077;49.704;9.908;2022-11-23T00:18:15;96762.00;;;9.02
27826;BMP280;15077;49.704;9.908;2022-11-23T00:20:41;96763.97;;;8.97
27826;BMP280;15077;49.704;9.908;2022-11-23T00:23:08;96768.53;;;8.91
27826;BMP280;15077;49.704;9.908;2022-11-23T00:25:33;96775.56;;;8.86
27826;BMP280;15077;49.704;9.908;2022-11-23T00:27:59;96769.84;;;8.82
27826;BMP280;15077;49.704;9.908;2022-11-23T00:30:25;96781.75;;;8.80
27826;BMP280;15077;49.704;9.908;2022-11-23T00:32:51;96775.91;;;8.80
27826;BMP280;15077;49.704;9.908;2022-11-23T00:35:18;96775.81;;;8.81
27826;BMP280;15077;49.704;9.908;2022-11-23T00:37:44;96785.00;;;8.82
27826;BMP280;15077;49.704;9.908;2022-11-23T00:40:10;96774.09;;;8.82
27826;BMP280;15077;49.704;9.908;2022-11-23T00:42:36;96778.34;;;8.81
27826;BMP280;15077;49.704;9.908;2022-11-23T00:45:02;96775.06;;;8.79
27826;BMP280;15077;49.704;9.908;2022-11-23T00:47:28;96775.91;;;8.80
27826;BMP280;15077;49.704;9.908;2022-11-23T00:49:54;96776.72;;;8.80
27826;BMP280;15077;49.704;9.908;2022-11-23T00:52:19;96768.41;;;8.78
27826;BMP280;15077;49.704;9.908;2022-11-23T00:54:45;96768.41;;;8.78
27826;BMP280;15077;49.704;9.908;2022-11-23T00:57:11;96765.88;;;8.78
27826;BMP280;15077;49.704;9.908;2022-11-23T00:59:36;96775.97;;;8.78
27826;BMP280;15077;49.704;9.908;2022-11-23T01:02:02;96776.88;;;8.77
27826;BMP280;15077;49.704;9.908;2022-11-23T01:04:29;96785.34;;;8.76
27826;BMP280;15077;49.704;9.908;2022-11-23T01:06:55;96789.59;;;8.76
27826;BMP280;15077;49.704;9.908;2022-11-23T01:09:24;96788.69;;;8.77
27826;BMP280;15077;49.704;9.908;2022-11-23T01:11:52;96775.22;;;8.76
27826;BMP280;15077;49.704;9.908;2022-11-23T01:14:19;96774.44;;;8.76
27826;BMP280;15077;49.704;9.908;2022-11-23T01:16:45;96779.41;;;8.77
27826;BMP280;15077;49.704;9.908;2022-11-23T01:19:14;96772.63;;;8.78
27826;BMP280;15077;49.704;9.908;2022-11-23T01:21:40;96777.69;;;8.78
27826;BMP280;15077;49.704;9.908;2022-11-23T01:24:12;96777.69;;;8.78
27826;BMP280;15077;49.704;9.908;2022-11-23T01:26:39;96786.16;;;8.77
27826;BMP280;15077;49.704;9.908;2022-11-23T01:29:04;96787.13;;;8.74
27826;BMP280;15077;49.704;9.908;2022-11-23T01:31:30;96787.38;;;8.70
27826;BMP280;15077;49.704;9.908;2022-11-23T01:33:59;96795.94;;;8.68
27826;BMP280;15077;49.704;9.908;2022-11-23T01:36:27;96792.84;;;8.63
27826;BMP280;15077;49.704;9.908;2022-11-23T01:38:54;96797.31;;;8.58
27826;BMP280;15077;49.704;9.908;2022-11-23T01:41:22;96796.59;;;8.56
27826;BMP280;15077;49.704;9.908;2022-11-23T01:43:48;96803.44;;;8.54
27826;BMP280;15077;49.704;9.908;2022-11-23T01:46:14;96810.34;;;8.50
27826;BMP280;15077;49.704;9.908;2022-11-23T01:48:44;96807.16;;;8.47
27826;BMP280;15077;49.704;9.908;2022-11-23T01:51:16;96809.84;;;8.44
27826;BMP280;15077;49.704;9.908;2022-11-23T01:53:44;96815.78;;;8.43
27826;BMP280;15077;49.704;9.908;2022-11-23T01:56:15;96817.50;;;8.42
27826;BMP280;15077;49.704;9.908;2022-11-23T01:58:44;96820.84;;;8.43
27826;BMP280;15077;49.704;9.908;2022-11-23T02:01:10;96821.66;;;8.43
27826;BMP280;15077;49.704;9.908;2022-11-23T02:03:37;96819.94;;;8.44
27826;BMP280;15077;49.704;9.908;2022-11-23T02:06:08;96820.84;;;8.43
27826;BMP280;15077;49.704;9.908;2022-11-23T02:08:35;96826.72;;;8.43
27826;BMP280;15077;49.704;9.908;2022-11-23T02:11:02;96826.78;;;8.42
27826;BMP280;15077;49.704;9.908;2022-11-23T02:13:28;96821.75;;;8.42
27826;BMP280;15077;49.704;9.908;2022-11-23T02:15:55;96825.88;;;8.43
27826;BMP280;15077;49.704;9.908;2022-11-23T02:18:24;96830.84;;;8.44
27826;BMP280;15077;49.704;9.908;2022-11-23T02:20:51;96829.25;;;8.43
27826;BMP280;15077;49.704;9.908;2022-11-23T02:26:24;96826.72;;;8.43
27826;BMP280;15077;49.704;9.908;2022-11-23T02:28:59;96828.31;;;8.44
27826;BMP280;15077;49.704;9.908;2022-11-23T02:31:25;96826.72;;;8.43
27826;BMP280;15077;49.704;9.908;2022-11-23T02:33:51;96828.25;;;8.46
27826;BMP280;15077;49.704;9.908;2022-11-23T02:36:35;96830.78;;;8.46
27826;BMP280;15077;49.704;9.908;2022-11-23T02:39:10;96822.47;;;8.44
27826;BMP280;15077;49.704;9.908;2022-11-23T02:44:07;96835.34;;;8.39
27826;BMP280;15077;49.704;9.908;2022-11-23T02:46:34;96832.97;;;8.36
27826;BMP280;15077;49.704;9.908;2022-11-23T02:48:59;96832.97;;;8.36
27826;BMP280;15077;49.704;9.908;2022-11-23T02:51:25;96834.59;;;8.37
27826;BMP280;15077;49.704;9.908;2022-11-23T02:53:51;96842.97;;;8.38
27826;BMP280;15077;49.704;9.908;2022-11-23T02:56:16;96832.88;;;8.38
27826;BMP280;15077;49.704;9.908;2022-11-23T02:58:42;96835.34;;;8.39
27826;BMP280;15077;49.704;9.908;2022-11-23T03:01:07;96836.13;;;8.40
27826;BMP280;15077;49.704;9.908;2022-11-23T03:03:33;96836.97;;;8.40
27826;BMP280;15077;49.704;9.908;2022-11-23T03:05:59;96837.78;;;8.41
27826;BMP280;15077;49.704;9.908;2022-11-23T03:08:24;96834.38;;;8.42
27826;BMP280;15077;49.704;9.908;2022-11-23T03:10:50;96833.38;;;8.44
27826;BMP280;15077;49.704;9.908;2022-11-23T03:13:15;96841.72;;;8.46
27826;BMP280;15077;49.704;9.908;2022-11-23T03:15:41;96850.00;;;8.48
27826;BMP280;15077;49.704;9.908;2022-11-23T03:18:07;96851.56;;;8.51
27826;BMP280;15077;49.704;9.908;2022-11-23T03:20:33;96851.41;;;8.54
27826;BMP280;15077;49.704;9.908;2022-11-23T03:22:58;96850.50;;;8.55
27826;BMP280;15077;49.704;9.908;2022-11-23T03:25:24;96845.28;;;8.58
27826;BMP280;15077;49.704;9.908;2022-11-23T03:27:50;96842.69;;;8.59
27826;BMP280;15077;49.704;9.908;2022-11-23T03:30:15;96848.41;;;8.63
27826;BMP280;15077;49.704;9.908;2022-11-23T03:32:41;96844.06;;;8.65
27826;BMP280;15077;49.704;9.908;2022-11-23T03:35:07;96844.88;;;8.65
27826;BMP280;15077;49.704;9.908;2022-11-23T03:37:33;96839.75;;;8.67
27826;BMP280;15077;49.704;9.908;2022-11-23T03:39:58;96836.91;;;8.72
27826;BMP280;15077;49.704;9.908;2022-11-23T03:42:24;96838.47;;;8.75
27826;BMP280;15077;49.704;9.908;2022-11-23T03:44:50;96834.16;;;8.77
27826;BMP280;15077;49.704;9.908;2022-11-23T03:47:15;96837.34;;;8.80
27826;BMP280;15077;49.704;9.908;2022-11-23T03:49:41;96832.19;;;8.82
27826;BMP280;15077;49.704;9.908;2022-11-23T03:52:10;96825.41;;;8.82
27826;BMP280;15077;49.704;9.908;2022-11-23T03:54:37;96827.06;;;8.83
27826;BMP280;15077;49.704;9.908;2022-11-23T03:57:05;96820.22;;;8.85
27826;BMP280;15077;49.704;9.908;2022-11-23T03:59:31;96826.91;;;8.86
27826;BMP280;15077;49.704;9.908;2022-11-23T04:01:57;96820.97;;;8.87
27826;BMP280;15077;49.704;9.908;2022-11-23T04:04:22;96816.72;;;8.88
27826;BMP280;15077;49.704;9.908;2022-11-23T04:06:48;96818.44;;;8.87
27826;BMP280;15077;49.704;9.908;2022-11-23T04:09:14;96825.25;;;8.85
27826;BMP280;15077;49.704;9.908;2022-11-23T04:11:39;96825.34;;;8.84
27826;BMP280;15077;49.704;9.908;2022-11-23T04:14:05;96823.81;;;8.81
27826;BMP280;15077;49.704;9.908;2022-11-23T04:16:37;96823.13;;;8.78
27826;BMP280;15077;49.704;9.908;2022-11-23T04:19:02;96816.56;;;8.75
27826;BMP280;15077;49.704;9.908;2022-11-23T04:21:30;96820.84;;;8.73
27826;BMP280;15077;49.704;9.908;2022-11-23T04:23:55;96818.50;;;8.70
27826;BMP280;15077;49.704;9.908;2022-11-23T04:26:21;96821.19;;;8.68
27826;BMP280;15077;49.704;9.908;2022-11-23T04:28:47;96827.13;;;8.67
27826;BMP280;15077;49.704;9.908;2022-11-23T04:31:12;96824.69;;;8.65
27826;BMP280;15077;49.704;9.908;2022-11-23T04:33:38;96825.59;;;8.64
27826;BMP280;15077;49.704;9.908;2022-11-23T04:36:04;96828.03;;;8.66
27826;BMP280;15077;49.704;9.908;2022-11-23T04:38:30;96815.41;;;8.66
27826;BMP280;15077;49.704;9.908;2022-11-23T04:40:57;96827.22;;;8.65
27826;BMP280;15077;49.704;9.908;2022-11-23T04:43:24;96830.56;;;8.66
27826;BMP280;15077;49.704;9.908;2022-11-23T04:45:51;96831.28;;;8.68
27826;BMP280;15077;49.704;9.908;2022-11-23T04:48:18;96827.88;;;8.69
27826;BMP280;15077;49.704;9.908;2022-11-23T04:50:45;96818.59;;;8.69
27826;BMP280;15077;49.704;9.908;2022-11-23T04:53:14;96819.38;;;8.69
27826;BMP280;15077;49.704;9.908;2022-11-23T04:55:40;96824.34;;;8.71
27826;BMP280;15077;49.704;9.908;2022-11-23T04:58:06;96824.28;;;8.72
27826;BMP280;15077;49.704;9.908;2022-11-23T05:00:32;96823.31;;;8.75
27826;BMP280;15077;49.704;9.908;2022-11-23T05:02:58;96828.28;;;8.76
27826;BMP280;15077;49.704;9.908;2022-11-23T05:05:25;96819.72;;;8.79
27826;BMP280;15077;49.704;9.908;2022-11-23T05:07:50;96833.09;;;8.81
27826;BMP280;15077;49.704;9.908;2022-11-23T05:10:16;96827.94;;;8.82
27826;BMP280;15077;49.704;9.908;2022-11-23T05:12:42;96823.66;;;8.84
27826;BMP280;15077;49.704;9.908;2022-11-23T05:15:09;96821.03;;;8.86
27826;BMP280;15077;49.704;9.908;2022-11-23T05:17:36;96825.09;;;8.88
27826;BMP280;15077;49.704;9.908;2022-11-23T05:20:02;96824.22;;;8.89
27826;BMP280;15077;49.704;9.908;2022-11-23T05:22:28;96828.38;;;8.90
27826;BMP280;15077;49.704;9.908;2022-11-23T05:24:54;96824.94;;;8.91
27826;BMP280;15077;49.704;9.908;2022-11-23T05:27:20;96822.41;;;8.91
27826;BMP280;15077;49.704;9.908;2022-11-23T05:29:46;96824.03;;;8.92
27826;BMP280;15077;49.704;9.908;2022-11-23T05:32:14;96819.88;;;8.91
27826;BMP280;15077;49.704;9.908;2022-11-23T05:34:40;96818.09;;;8.93
27826;BMP280;15077;49.704;9.908;2022-11-23T05:37:05;96823.88;;;8.95
27826;BMP280;15077;49.704;9.908;2022-11-23T05:39:31;96823.16;;;8.93
27826;BMP280;15077;49.704;9.908;2022-11-23T05:41:57;96815.56;;;8.93
27826;BMP280;15077;49.704;9.908;2022-11-23T05:44:22;96822.31;;;8.93
27826;BMP280;15077;49.704;9.908;2022-11-23T05:46:51;96823.25;;;8.92
27826;BMP280;15077;49.704;9.908;2022-11-23T05:49:16;96826.56;;;8.92
27826;BMP280;15077;49.704;9.908;2022-11-23T05:51:42;96818.91;;;8.94
27826;BMP280;15077;49.704;9.908;2022-11-23T05:54:08;96821.34;;;8.95
27826;BMP280;15077;49.704;9.908;2022-11-23T05:56:33;96821.44;;;8.94
27826;BMP280;15077;49.704;9.908;2022-11-23T05:58:59;96823.00;;;8.96
27826;BMP280;15077;49.704;9.908;2022-11-23T06:01:24;96819.53;;;8.97
27826;BMP280;15077;49.704;9.908;2022-11-23T06:03:50;96812.63;;;9.01
27826;BMP280;15077;49.704;9.908;2022-11-23T06:06:16;96815.06;;;9.02
27826;BMP280;15077;49.704;9.908;2022-11-23T06:08:42;96819.97;;;9.05
27826;BMP280;15077;49.704;9.908;2022-11-23T06:11:07;96824.00;;;9.08
27826;BMP280;15077;49.704;9.908;2022-11-23T06:13:33;96824.84;;;9.08
27826;BMP280;15077;49.704;9.908;2022-11-23T06:15:59;96823.03;;;9.10
27826;BMP280;15077;49.704;9.908;2022-11-23T06:18:25;96815.47;;;9.10
27826;BMP280;15077;49.704;9.908;2022-11-23T06:20:50;96820.44;;;9.12
27826;BMP280;15077;49.704;9.908;2022-11-23T06:23:17;96818.16;;;9.07
27826;BMP280;15077;49.704;9.908;2022-11-23T06:25:43;96815.72;;;9.06
27826;BMP280;15077;49.704;9.908;2022-11-23T06:28:08;96823.22;;;9.07
27826;BMP280;15077;49.704;9.908;2022-11-23T06:30:34;96823.22;;;9.07
27826;BMP280;15077;49.704;9.908;2022-11-23T06:33:03;96819.72;;;9.10
27826;BMP280;15077;49.704;9.908;2022-11-23T06:35:29;96819.72;;;9.10
27826;BMP280;15077;49.704;9.908;2022-11-23T06:37:55;96830.53;;;9.12
27826;BMP280;15077;49.704;9.908;2022-11-23T06:40:21;96828.81;;;9.12
27826;BMP280;15077;49.704;9.908;2022-11-23T06:42:46;96823.75;;;9.12
27826;BMP280;15077;49.704;9.908;2022-11-23T06:45:13;96833.88;;;9.12
27826;BMP280;15077;49.704;9.908;2022-11-23T06:47:38;96832.28;;;9.11
27826;BMP280;15077;49.704;9.908;2022-11-23T06:50:05;96838.94;;;9.12
27826;BMP280;15077;49.704;9.908;2022-11-23T06:52:31;96839.69;;;9.14
27826;BMP280;15077;49.704;9.908;2022-11-23T06:54:56;96841.28;;;9.15
27826;BMP280;15077;49.704;9.908;2022-11-23T06:57:22;96846.25;;;9.17
27826;BMP280;15077;49.704;9.908;2022-11-23T06:59:48;96848.72;;;9.18
27826;BMP280;15077;49.704;9.908;2022-11-23T07:02:14;96844.31;;;9.21
27826;BMP280;15077;49.704;9.908;2022-11-23T07:04:39;96849.28;;;9.23
27826;BMP280;15077;49.704;9.908;2022-11-23T07:07:08;96846.69;;;9.24
27826;BMP280;15077;49.704;9.908;2022-11-23T07:09:34;96852.44;;;9.26
27826;BMP280;15077;49.704;9.908;2022-11-23T07:12:00;96859.97;;;9.28
27826;BMP280;15077;49.704;9.908;2022-11-23T07:14:26;96853.13;;;9.30
27826;BMP280;15077;49.704;9.908;2022-11-23T07:16:51;96858.81;;;9.33
27826;BMP280;15077;49.704;9.908;2022-11-23T07:19:17;96855.41;;;9.34
27826;BMP280;15077;49.704;9.908;2022-11-23T07:21:44;96857.84;;;9.36
27826;BMP280;15077;49.704;9.908;2022-11-23T07:24:09;96862.81;;;9.37
27826;BMP280;15077;49.704;9.908;2022-11-23T07:26:35;96859.28;;;9.40
27826;BMP280;15077;49.704;9.908;2022-11-23T07:29:01;96856.75;;;9.40
27826;BMP280;15077;49.704;9.908;2022-11-23T07:31:26;96865.81;;;9.44
27826;BMP280;15077;49.704;9.908;2022-11-23T07:33:52;96859.88;;;9.45
27826;BMP280;15077;49.704;9.908;2022-11-23T07:36:18;96865.63;;;9.47
27826;BMP280;15077;49.704;9.908;2022-11-23T07:38:43;96872.25;;;9.49
27826;BMP280;15077;49.704;9.908;2022-11-23T07:41:09;96866.19;;;9.52
27826;BMP280;15077;49.704;9.908;2022-11-23T07:43:35;96868.53;;;9.55
27826;BMP280;15077;49.704;9.908;2022-11-23T07:46:00;96863.31;;;9.58
27826;BMP280;15077;49.704;9.908;2022-11-23T07:48:26;96869.03;;;9.61
27826;BMP280;15077;49.704;9.908;2022-11-23T07:50:53;96868.97;;;9.63
27826;BMP280;15077;49.704;9.908;2022-11-23T07:53:19;96869.69;;;9.65
27826;BMP280;15077;49.704;9.908;2022-11-23T07:55:45;96870.41;;;9.66
27826;BMP280;15077;49.704;9.908;2022-11-23T07:58:11;96871.16;;;9.68
27826;BMP280;15077;49.704;9.908;2022-11-23T08:00:37;96872.78;;;9.69
27826;BMP280;15077;49.704;9.908;2022-11-23T08:03:03;96868.44;;;9.71
27826;BMP280;15077;49.704;9.908;2022-11-23T08:05:32;96869.16;;;9.73
27826;BMP280;15077;49.704;9.908;2022-11-23T08:08:01;96863.94;;;9.76
27826;BMP280;15077;49.704;9.908;2022-11-23T08:10:28;96867.13;;;9.80
27826;BMP280;15077;49.704;9.908;2022-11-23T08:12:57;96866.09;;;9.82
27826;BMP280;15077;49.704;9.908;2022-11-23T08:15:24;96859.19;;;9.86
27826;BMP280;15077;49.704;9.908;2022-11-23T08:17:56;96863.97;;;9.90
27826;BMP280;15077;49.704;9.908;2022-11-23T08:20:23;96869.75;;;9.92
27826;BMP280;15077;49.704;9.908;2022-11-23T08:22:49;96869.63;;;9.95
27826;BMP280;15077;49.704;9.908;2022-11-23T08:25:15;96867.78;;;9.97
27826;BMP280;15077;49.704;9.908;2022-11-23T08:27:41;96866.81;;;10.00
27826;BMP280;15077;49.704;9.908;2022-11-23T08:30:07;96875.03;;;10.03
27826;BMP280;15077;49.704;9.908;2022-11-23T08:32:32;96880.84;;;10.05
27826;BMP280;15077;49.704;9.908;2022-11-23T08:34:58;96879.03;;;10.07
27826;BMP280;15077;49.704;9.908;2022-11-23T08:37:24;96878.84;;;10.10
27826;BMP280;15077;49.704;9.908;2022-11-23T08:39:49;96880.50;;;10.11
27826;BMP280;15077;49.704;9.908;2022-11-23T08:42:15;96882.09;;;10.12
27826;BMP280;15077;49.704;9.908;2022-11-23T08:44:41;96881.97;;;10.15
27826;BMP280;15077;49.704;9.908;2022-11-23T08:47:06;96880.94;;;10.17
27826;BMP280;15077;49.704;9.908;2022-11-23T08:49:32;96885.03;;;10.20
27826;BMP280;15077;49.704;9.908;2022-11-23T08:51:58;96894.97;;;10.23
27826;BMP280;15077;49.704;9.908;2022-11-23T08:54:24;96893.16;;;10.25
27826;BMP280;15077;49.704;9.908;2022-11-23T08:56:50;96893.00;;;10.28
27826;BMP280;15077;49.704;9.908;2022-11-23T08:59:16;96891.03;;;10.33
27826;BMP280;15077;49.704;9.908;2022-11-23T09:01:43;96895.81;;;10.37
27826;BMP280;15077;49.704;9.908;2022-11-23T09:04:09;96895.72;;;10.39
27826;BMP280;15077;49.704;9.908;2022-11-23T09:06:35;96896.34;;;10.42
27826;BMP280;15077;49.704;9.908;2022-11-23T09:09:01;96886.03;;;10.45
27826;BMP280;15077;49.704;9.908;2022-11-23T09:11:27;96887.59;;;10.48
27826;BMP280;15077;49.704;9.908;2022-11-23T09:13:53;96888.31;;;10.50
27826;BMP280;15077;49.704;9.908;2022-11-23T09:16:19;96891.56;;;10.52
27826;BMP280;15077;49.704;9.908;2022-11-23T09:18:45;96891.38;;;10.55
27826;BMP280;15077;49.704;9.908;2022-11-23T09:21:11;96886.97;;;10.58
27826;BMP280;15077;49.704;9.908;2022-11-23T09:23:37;96897.72;;;10.62
27826;BMP280;15077;49.704;9.908;2022-11-23T09:26:04;96889.22;;;10.63
27826;BMP280;15077;49.704;9.908;2022-11-23T09:28:30;96893.31;;;10.65
27826;BMP280;15077;49.704;9.908;2022-11-23T09:30:56;96892.28;;;10.67
27826;BMP280;15077;49.704;9.908;2022-11-23T09:33:23;96893.75;;;10.71
27826;BMP280;15077;49.704;9.908;2022-11-23T09:36:15;96895.28;;;10.74
27826;BMP280;15077;49.704;9.908;2022-11-23T09:38:41;96895.91;;;10.77
27826;BMP280;15077;49.704;9.908;2022-11-23T09:44:20;96893.19;;;10.80
27826;BMP280;15077;49.704;9.908;2022-11-23T09:49:48;96898.59;;;10.88
27826;BMP280;15077;49.704;9.908;2022-11-23T09:52:21;96900.84;;;10.93
27826;BMP280;15077;49.704;9.908;2022-11-23T09:54:48;96895.50;;;10.97
27826;BMP280;15077;49.704;9.908;2022-11-23T09:57:18;96901.22;;;11.01
27826;BMP280;15077;49.704;9.908;2022-11-23T10:00:19;96895.78;;;11.07
27826;BMP280;15077;49.704;9.908;2022-11-23T10:02:46;96891.31;;;11.10
27826;BMP280;15077;49.704;9.908;2022-11-23T10:05:17;96897.03;;;11.13
27826;BMP280;15077;49.704;9.908;2022-11-23T10:10:25;96896.38;;;11.24
27826;BMP280;15077;49.704;9.908;2022-11-23T10:23:51;96890.88;;;11.44
27826;BMP280;15077;49.704;9.908;2022-11-23T10:26:19;96892.34;;;11.48
27826;BMP280;15077;49.704;9.908;2022-11-23T10:28:46;96897.03;;;11.54
27826;BMP280;15077;49.704;9.908;2022-11-23T10:31:18;96888.34;;;11.58
27826;BMP280;15077;49.704;9.908;2022-11-23T10:36:20;96879.22;;;11.67
27826;BMP280;15077;49.704;9.908;2022-11-23T10:38:49;96876.28;;;11.73
27826;BMP280;15077;49.704;9.908;2022-11-23T10:41:15;96873.34;;;11.79
27826;BMP280;15077;49.704;9.908;2022-11-23T10:46:44;96872.91;;;11.99
27826;BMP280;15077;49.704;9.908;2022-11-23T10:49:25;96863.47;;;12.13
27826;BMP280;15077;49.704;9.908;2022-11-23T10:51:57;96869.56;;;12.36
27826;BMP280;15077;49.704;9.908;2022-11-23T10:54:27;96868.53;;;12.63
27826;BMP280;15077;49.704;9.908;2022-11-23T10:56:55;96861.31;;;12.94
27826;BMP280;15077;49.704;9.908;2022-11-23T10:59:31;96864.53;;;13.32
27826;BMP280;15077;49.704;9.908;2022-11-23T11:02:19;96854.16;;;13.69
27826;BMP280;15077;49.704;9.908;2022-11-23T11:04:47;96860.88;;;14.04
27826;BMP280;15077;49.704;9.908;2022-11-23T11:07:26;96864.91;;;14.41
27826;BMP280;15077;49.704;9.908;2022-11-23T11:10:00;96857.19;;;14.75
27826;BMP280;15077;49.704;9.908;2022-11-23T11:12:27;96854.72;;;15.06
27826;BMP280;15077;49.704;9.908;2022-11-23T11:15:02;96851.31;;;15.38
27826;BMP280;15077;49.704;9.908;2022-11-23T11:17:31;96848.53;;;15.72
27826;BMP280;15077;49.704;9.908;2022-11-23T11:19:58;96840.94;;;16.02
27826;BMP280;15077;49.704;9.908;2022-11-23T11:22:32;96841.28;;;16.29
27826;BMP280;15077;49.704;9.908;2022-11-23T11:25:04;96837.38;;;16.54
27826;BMP280;15077;49.704;9.908;2022-11-23T11:27:31;96832.34;;;16.73
27826;BMP280;15077;49.704;9.908;2022-11-23T11:30:05;96828.06;;;16.83
27826;BMP280;15077;49.704;9.908;2022-11-23T11:35:26;96829.56;;;16.86
27826;BMP280;15077;49.704;9.908;2022-11-23T11:37:57;96824.81;;;16.81
27826;BMP280;15077;49.704;9.908;2022-11-23T11:40:32;96820.38;;;16.83
27826;BMP280;15077;49.704;9.908;2022-11-23T11:45:52;96814.38;;;17.03
27826;BMP280;15077;49.704;9.908;2022-11-23T11:51:31;96815.69;;;17.37
27826;BMP280;15077;49.704;9.908;2022-11-23T11:54:12;96815.84;;;17.54
27826;BMP280;15077;49.704;9.908;2022-11-23T11:56:45;96817.84;;;17.69
27826;BMP280;15077;49.704;9.908;2022-11-23T12:04:36;96809.59;;;18.13
27826;BMP280;15077;49.704;9.908;2022-11-23T12:07:12;96813.09;;;18.31
27826;BMP280;15077;49.704;9.908;2022-11-23T12:09:41;96804.94;;;18.45
27826;BMP280;15077;49.704;9.908;2022-11-23T12:12:17;96804.50;;;18.58
27826;BMP280;15077;49.704;9.908;2022-11-23T12:14:44;96796.59;;;18.69
27826;BMP280;15077;49.704;9.908;2022-11-23T12:22:55;96792.88;;;18.91
27826;BMP280;15077;49.704;9.908;2022-11-23T12:25:31;96796.88;;;18.93
27826;BMP280;15077;49.704;9.908;2022-11-23T12:30:55;96789.09;;;18.85
27826;BMP280;15077;49.704;9.908;2022-11-23T12:33:28;96786.84;;;18.73
27826;BMP280;15077;49.704;9.908;2022-11-23T12:39:04;96791.72;;;18.40
27826;BMP280;15077;49.704;9.908;2022-11-23T12:47:30;96769.28;;;17.87
27826;BMP280;15077;49.704;9.908;2022-11-23T12:52:59;96767.44;;;17.60
27826;BMP280;15077;49.704;9.908;2022-11-23T13:00:33;96758.38;;;17.38
27826;BMP280;15077;49.704;9.908;2022-11-23T13:03:26;96760.69;;;17.31
27826;BMP280;15077;49.704;9.908;2022-11-23T13:11:53;96752.16;;;17.12
27826;BMP280;15077;49.704;9.908;2022-11-23T13:20:11;96752.78;;;16.95
27826;BMP280;15077;49.704;9.908;2022-11-23T13:22:40;96748.34;;;16.88
27826;BMP280;15077;49.704;9.908;2022-11-23T13:25:23;96748.47;;;16.77
27826;BMP280;15077;49.704;9.908;2022-11-23T13:40:27;96743.00;;;16.22
27826;BMP280;15077;49.704;9.908;2022-11-23T13:42:58;96737.97;;;16.11
27826;BMP280;15077;49.704;9.908;2022-11-23T13:45:31;96739.53;;;16.02
27826;BMP280;15077;49.704;9.908;2022-11-23T13:53:26;96733.22;;;15.77
27826;BMP280;15077;49.704;9.908;2022-11-23T13:55:55;96731.41;;;15.68
27826;BMP280;15077;49.704;9.908;2022-11-23T14:00:57;96724.16;;;15.52
27826;BMP280;15077;49.704;9.908;2022-11-23T14:06:28;96722.63;;;15.41
27826;BMP280;15077;49.704;9.908;2022-11-23T14:09:03;96724.06;;;15.34
27826;BMP280;15077;49.704;9.908;2022-11-23T14:11:38;96728.16;;;15.25
27826;BMP280;15077;49.704;9.908;2022-11-23T14:14:15;96719.22;;;15.20
27826;BMP280;15077;49.704;9.908;2022-11-23T14:22:54;96714.53;;;15.04
27826;BMP280;15077;49.704;9.908;2022-11-23T14:33:58;96699.84;;;14.86
27826;BMP280;15077;49.704;9.908;2022-11-23T14:36:30;96707.72;;;14.83
27826;BMP280;15077;49.704;9.908;2022-11-23T14:41:52;96705.09;;;14.74
27826;BMP280;15077;49.704;9.908;2022-11-23T14:44:24;96707.06;;;14.70
27826;BMP280;15077;49.704;9.908;2022-11-23T14:47:07;96704.75;;;14.67
27826;BMP280;15077;49.704;9.908;2022-11-23T14:49:33;96704.31;;;14.62
27826;BMP280;15077;49.704;9.908;2022-11-23T14:52:00;96699.56;;;14.58
27826;BMP280;15077;49.704;9.908;2022-11-23T14:54:26;96690.41;;;14.55
27826;BMP280;15077;49.704;9.908;2022-11-23T14:57:01;96686.50;;;14.52
27826;BMP280;15077;49.704;9.908;2022-11-23T14:59:31;96688.34;;;14.50
27826;BMP280;15077;49.704;9.908;2022-11-23T15:02:04;96691.13;;;14.47
27826;BMP280;15077;49.704;9.908;2022-11-23T15:04:36;96687.22;;;14.43
27826;BMP280;15077;49.704;9.908;2022-11-23T15:07:08;96682.38;;;14.40
27826;BMP280;15077;49.704;9.908;2022-11-23T15:09:43;96687.69;;;14.37
27826;BMP280;15077;49.704;9.908;2022-11-23T15:12:53;96693.16;;;14.32
27826;BMP280;15077;49.704;9.908;2022-11-23T15:15:29;96696.38;;;14.23
27826;BMP280;15077;49.704;9.908;2022-11-23T15:18:00;96686.53;;;14.19
27826;BMP280;15077;49.704;9.908;2022-11-23T15:20:32;96677.63;;;14.13
27826;BMP280;15077;49.704;9.908;2022-11-23T15:23:02;96679.13;;;14.05
27826;BMP280;15077;49.704;9.908;2022-11-23T15:25:28;96683.03;;;13.98
27826;BMP280;15077;49.704;9.908;2022-11-23T15:27:54;96676.09;;;13.89
27826;BMP280;15077;49.704;9.908;2022-11-23T15:30:26;96686.84;;;13.82
27826;BMP280;15077;49.704;9.908;2022-11-23T15:33:01;96694.16;;;13.75
27826;BMP280;15077;49.704;9.908;2022-11-23T15:35:32;96695.53;;;13.68
27826;BMP280;15077;49.704;9.908;2022-11-23T15:37:58;96695.88;;;13.64
27826;BMP280;15077;49.704;9.908;2022-11-23T15:40:29;96702.22;;;13.58
27826;BMP280;15077;49.704;9.908;2022-11-23T15:42:55;96694.22;;;13.52
27826;BMP280;15077;49.704;9.908;2022-11-23T15:48:29;96693.50;;;13.39
27826;BMP280;15077;49.704;9.908;2022-11-23T15:51:04;96693.84;;;13.35
27826;BMP280;15077;49.704;9.908;2022-11-23T15:53:50;96681.34;;;13.32
27826;BMP280;15077;49.704;9.908;2022-11-23T15:56:29;96690.00;;;13.29
27826;BMP280;15077;49.704;9.908;2022-11-23T15:58:57;96691.97;;;13.26
27826;BMP280;15077;49.704;9.908;2022-11-23T16:01:24;96689.66;;;13.23
27826;BMP280;15077;49.704;9.908;2022-11-23T16:03:54;96699.25;;;13.19
27826;BMP280;15077;49.704;9.908;2022-11-23T16:09:00;96698.16;;;13.11
27826;BMP280;15077;49.704;9.908;2022-11-23T16:11:32;96693.41;;;13.07
27826;BMP280;15077;49.704;9.908;2022-11-23T16:14:16;96703.09;;;13.02
27826;BMP280;15077;49.704;9.908;2022-11-23T16:16:43;96705.25;;;12.95
27826;BMP280;15077;49.704;9.908;2022-11-23T16:19:39;96718.63;;;12.86
27826;BMP280;15077;49.704;9.908;2022-11-23T16:25:26;96716.44;;;12.69
27826;BMP280;15077;49.704;9.908;2022-11-23T16:30:24;96719.13;;;12.56
27826;BMP280;15077;49.704;9.908;2022-11-23T16:32:50;96728.78;;;12.51
27826;BMP280;15077;49.704;9.908;2022-11-23T16:35:17;96730.13;;;12.44
27826;BMP280;15077;49.704;9.908;2022-11-23T16:37:44;96726.38;;;12.37
27826;BMP280;15077;49.704;9.908;2022-11-23T16:40:10;96728.53;;;12.30